sensor_id;sensor_type;location;lat;lon;timestamp;pressure;altitude;pressure_sealevel;temperature;humidity
46955;BME280;32708;51.212;6.788;2023-05-23T00:00:58;101106.44;;;21.41;100.00
46955;BME280;32708;51.212;6.788;2023-05-23T00:03:27;101096.66;;;21.58;100.00
46955;BME280;32708;51.212;6.788;2023-05-23T00:05:56;101108.59;;;21.22;100.00
46955;BME280;32708;51.212;6.788;2023-05-23T00:08:24;101098.78;;;21.79;100.00
46955;BME280;32708;51.212;6.788;2023-05-23T00:10:50;101097.06;;;21.16;100.00
46955;BME280;32708;51.212;6.788;2023-05-23T00:13:17;101094.59;;;21.48;100.00
46955;BME280;32708;51.212;6.788;2023-05-23T00:15:44;101100.69;;;20.83;100.00
46955;BME280;32708;51.212;6.788;2023-05-23T00:18:10;101086.38;;;21.18;100.00
46955;BME280;32708;51.212;6.788;2023-05-23T00:20:38;101107.19;;;20.64;100.00
46955;BME280;32708;51.212;6.788;2023-05-23T00:23:07;101096.47;;;20.96;100.00
46955;BME280;32708;51.212;6.788;2023-05-23T00:25:37;101098.13;;;21.04;100.00
46955;BME280;32708;51.212;6.788;2023-05-23T00:28:06;101102.41;;;21.35;100.00
46955;BME280;32708;51.212;6.788;2023-05-23T00:30:33;101094.25;;;21.12;100.00
46955;BME280;32708;51.212;6.788;2023-05-23T00:32:59;101093.84;;;21.14;100.00
46955;BME280;32708;51.212;6.788;2023-05-23T00:35:26;101104.38;;;20.94;100.00
46955;BME280;32708;51.212;6.788;2023-05-23T00:37:52;101103.41;;;21.16;100.00
46955;BME280;32708;51.212;6.788;2023-05-23T00:40:19;101099.84;;;21.60;100.00
46955;BME280;32708;51.212;6.788;2023-05-23T00:42:46;101100.94;;;20.71;100.00
46955;BME280;32708;51.212;6.788;2023-05-23T00:45:13;101114.63;;;20.90;100.00
46955;BME280;32708;51.212;6.788;2023-05-23T00:47:44;101109.41;;;20.85;100.00
46955;BME280;32708;51.212;6.788;2023-05-23T00:50:14;101119.19;;;20.42;100.00
46955;BME280;32708;51.212;6.788;2023-05-23T00:52:43;101120.66;;;20.32;100.00
46955;BME280;32708;51.212;6.788;2023-05-23T00:55:11;101122.75;;;20.12;100.00
46955;BME280;32708;51.212;6.788;2023-05-23T00:57:39;101124.50;;;19.94;100.00
46955;BME280;32708;51.212;6.788;2023-05-23T01:00:11;101130.28;;;20.12;100.00
46955;BME280;32708;51.212;6.788;2023-05-23T01:02:45;101129.78;;;20.06;100.00
46955;BME280;32708;51.212;6.788;2023-05-23T01:05:15;101135.34;;;19.79;100.00
46955;BME280;32708;51.212;6.788;2023-05-23T01:07:49;101130.00;;;20.20;100.00
46955;BME280;32708;51.212;6.788;2023-05-23T01:10:22;101133.59;;;19.94;100.00
46955;BME280;32708;51.212;6.788;2023-05-23T01:18:37;101128.09;;;19.98;100.00
46955;BME280;32708;51.212;6.788;2023-05-23T01:21:16;101125.28;;;20.51;99.62
46955;BME280;32708;51.212;6.788;2023-05-23T01:29:40;101135.16;;;19.69;100.00
46955;BME280;32708;51.212;6.788;2023-05-23T01:32:11;101127.09;;;20.10;100.00
46955;BME280;32708;51.212;6.788;2023-05-23T01:34:41;101127.28;;;20.24;100.00
46955;BME280;32708;51.212;6.788;2023-05-23T01:37:10;101139.66;;;19.77;100.00
46955;BME280;32708;51.212;6.788;2023-05-23T01:39:40;101143.44;;;19.92;100.00
46955;BME280;32708;51.212;6.788;2023-05-23T01:42:08;101127.81;;;20.63;100.00
46955;BME280;32708;51.212;6.788;2023-05-23T01:44:36;101139.28;;;20.61;100.00
46955;BME280;32708;51.212;6.788;2023-05-23T01:47:06;101140.56;;;20.11;100.00
46955;BME280;32708;51.212;6.788;2023-05-23T01:49:35;101134.00;;;20.23;100.00
46955;BME280;32708;51.212;6.788;2023-05-23T01:52:04;101137.78;;;20.38;100.00
46955;BME280;32708;51.212;6.788;2023-05-23T01:54:37;101132.81;;;20.50;100.00
46955;BME280;32708;51.212;6.788;2023-05-23T01:57:05;101145.72;;;20.39;100.00
46955;BME280;32708;51.212;6.788;2023-05-23T01:59:32;101141.25;;;20.31;100.00
46955;BME280;32708;51.212;6.788;2023-05-23T02:01:58;101132.56;;;20.63;100.00
46955;BME280;32708;51.212;6.788;2023-05-23T02:04:26;101140.69;;;20.48;100.00
46955;BME280;32708;51.212;6.788;2023-05-23T02:06:53;101142.81;;;20.02;100.00
46955;BME280;32708;51.212;6.788;2023-05-23T02:09:19;101146.28;;;19.95;100.00
46955;BME280;32708;51.212;6.788;2023-05-23T02:11:45;101148.00;;;20.33;100.00
46955;BME280;32708;51.212;6.788;2023-05-23T02:14:12;101141.31;;;20.08;100.00
46955;BME280;32708;51.212;6.788;2023-05-23T02:16:38;101145.94;;;20.27;100.00
46955;BME280;32708;51.212;6.788;2023-05-23T02:19:04;101147.44;;;19.94;100.00
46955;BME280;32708;51.212;6.788;2023-05-23T02:21:30;101136.09;;;20.29;100.00
46955;BME280;32708;51.212;6.788;2023-05-23T02:23:56;101134.00;;;20.23;100.00
46955;BME280;32708;51.212;6.788;2023-05-23T02:26:22;101140.56;;;20.11;100.00
46955;BME280;32708;51.212;6.788;2023-05-23T02:28:49;101130.63;;;20.37;100.00
46955;BME280;32708;51.212;6.788;2023-05-23T02:31:15;101136.97;;;20.37;100.00
46955;BME280;32708;51.212;6.788;2023-05-23T02:33:42;101141.16;;;20.50;100.00
46955;BME280;32708;51.212;6.788;2023-05-23T02:36:08;101147.06;;;19.96;100.00
46955;BME280;32708;51.212;6.788;2023-05-23T02:38:34;101147.06;;;19.96;100.00
46955;BME280;32708;51.212;6.788;2023-05-23T02:41:00;101161.44;;;19.56;100.00
46955;BME280;32708;51.212;6.788;2023-05-23T02:43:27;101163.16;;;19.87;100.00
46955;BME280;32708;51.212;6.788;2023-05-23T02:45:53;101149.16;;;20.59;100.00
46955;BME280;32708;51.212;6.788;2023-05-23T02:48:19;101150.25;;;20.51;100.00
46955;BME280;32708;51.212;6.788;2023-05-23T02:50:49;101149.66;;;20.68;100.00
46955;BME280;32708;51.212;6.788;2023-05-23T02:53:15;101165.00;;;20.02;100.00
46955;BME280;32708;51.212;6.788;2023-05-23T02:55:41;101177.66;;;19.34;100.00
46955;BME280;32708;51.212;6.788;2023-05-23T02:58:08;101162.50;;;20.50;100.00
46955;BME280;32708;51.212;6.788;2023-05-23T03:00:34;101159.88;;;20.60;100.00
46955;BME280;32708;51.212;6.788;2023-05-23T03:03:01;101172.16;;;20.33;100.00
46955;BME280;32708;51.212;6.788;2023-05-23T03:05:27;101175.50;;;20.16;100.00
46955;BME280;32708;51.212;6.788;2023-05-23T03:07:53;101178.28;;;19.66;100.00
46955;BME280;32708;51.212;6.788;2023-05-23T03:10:19;101173.91;;;19.92;100.00
46955;BME280;32708;51.212;6.788;2023-05-23T03:12:46;101179.81;;;19.87;100.00
46955;BME280;32708;51.212;6.788;2023-05-23T03:15:14;101178.25;;;19.89;100.00
46955;BME280;32708;51.212;6.788;2023-05-23T03:17:42;101174.38;;;19.94;100.00
46955;BME280;32708;51.212;6.788;2023-05-23T03:20:09;101177.16;;;19.71;100.00
46955;BME280;32708;51.212;6.788;2023-05-23T03:22:35;101179.38;;;19.62;100.00
46955;BME280;32708;51.212;6.788;2023-05-23T03:25:02;101172.84;;;19.50;100.00
46955;BME280;32708;51.212;6.788;2023-05-23T03:27:29;101182.63;;;19.02;100.00
46955;BME280;32708;51.212;6.788;2023-05-23T03:29:55;101180.66;;;19.03;100.00
46955;BME280;32708;51.212;6.788;2023-05-23T03:32:21;101175.50;;;19.24;100.00
46955;BME280;32708;51.212;6.788;2023-05-23T03:34:47;101174.06;;;19.53;100.00
46955;BME280;32708;51.212;6.788;2023-05-23T03:37:13;101176.56;;;19.58;100.00
46955;BME280;32708;51.212;6.788;2023-05-23T03:39:39;101180.63;;;19.45;100.00
46955;BME280;32708;51.212;6.788;2023-05-23T03:42:06;101177.22;;;18.90;100.00
46955;BME280;32708;51.212;6.788;2023-05-23T03:44:32;101172.63;;;19.40;100.00
46955;BME280;32708;51.212;6.788;2023-05-23T03:46:58;101178.78;;;19.30;100.00
46955;BME280;32708;51.212;6.788;2023-05-23T03:49:24;101188.81;;;19.38;100.00
46955;BME280;32708;51.212;6.788;2023-05-23T03:51:51;101188.31;;;19.32;100.00
46955;BME280;32708;51.212;6.788;2023-05-23T03:54:17;101193.50;;;19.57;100.00
46955;BME280;32708;51.212;6.788;2023-05-23T03:56:44;101190.31;;;20.00;100.00
46955;BME280;32708;51.212;6.788;2023-05-23T03:59:10;101199.03;;;19.57;100.00
46955;BME280;32708;51.212;6.788;2023-05-23T04:01:36;101200.69;;;19.58;100.00
46955;BME280;32708;51.212;6.788;2023-05-23T04:04:04;101201.91;;;19.83;100.00
46955;BME280;32708;51.212;6.788;2023-05-23T04:06:32;101204.94;;;19.74;100.00
46955;BME280;32708;51.212;6.788;2023-05-23T04:08:59;101197.44;;;19.56;100.00
46955;BME280;32708;51.212;6.788;2023-05-23T04:11:26;101201.09;;;19.83;100.00
46955;BME280;32708;51.212;6.788;2023-05-23T04:13:52;101212.47;;;19.77;100.00
46955;BME280;32708;51.212;6.788;2023-05-23T04:16:19;101215.84;;;20.13;100.00
46955;BME280;32708;51.212;6.788;2023-05-23T04:18:47;101214.84;;;19.75;100.00
46955;BME280;32708;51.212;6.788;2023-05-23T04:21:13;101224.56;;;19.46;100.00
46955;BME280;32708;51.212;6.788;2023-05-23T04:23:49;101232.63;;;19.13;100.00
46955;BME280;32708;51.212;6.788;2023-05-23T04:26:15;101220.50;;;19.40;100.00
46955;BME280;32708;51.212;6.788;2023-05-23T04:28:47;101217.56;;;19.72;100.00
46955;BME280;32708;51.212;6.788;2023-05-23T04:31:15;101223.50;;;19.32;100.00
46955;BME280;32708;51.212;6.788;2023-05-23T04:33:41;101231.00;;;19.50;100.00
46955;BME280;32708;51.212;6.788;2023-05-23T04:36:08;101230.41;;;19.84;100.00
46955;BME280;32708;51.212;6.788;2023-05-23T04:38:36;101233.31;;;19.68;100.00
46955;BME280;32708;51.212;6.788;2023-05-23T04:41:06;101230.53;;;19.91;100.00
46955;BME280;32708;51.212;6.788;2023-05-23T04:43:37;101235.69;;;20.15;100.00
46955;BME280;32708;51.212;6.788;2023-05-23T04:46:30;101232.75;;;19.82;100.00
46955;BME280;32708;51.212;6.788;2023-05-23T04:49:26;101234.34;;;19.83;100.00
46955;BME280;32708;51.212;6.788;2023-05-23T04:51:52;101237.97;;;19.64;100.00
46955;BME280;32708;51.212;6.788;2023-05-23T04:54:23;101235.56;;;19.62;100.00
46955;BME280;32708;51.212;6.788;2023-05-23T04:56:52;101234.53;;;19.93;100.00
46955;BME280;32708;51.212;6.788;2023-05-23T04:59:19;101248.63;;;19.42;100.00
46955;BME280;32708;51.212;6.788;2023-05-23T05:01:45;101250.81;;;19.33;100.00
46955;BME280;32708;51.212;6.788;2023-05-23T05:04:16;101244.19;;;19.38;100.00
46955;BME280;32708;51.212;6.788;2023-05-23T05:06:43;101246.31;;;19.44;100.00
46955;BME280;32708;51.212;6.788;2023-05-23T05:09:09;101251.59;;;19.53;100.00
46955;BME280;32708;51.212;6.788;2023-05-23T05:11:35;101246.78;;;19.69;100.00
46955;BME280;32708;51.212;6.788;2023-05-23T05:14:02;101253.94;;;19.93;100.00
46955;BME280;32708;51.212;6.788;2023-05-23T05:16:28;101256.56;;;19.63;100.00
46955;BME280;32708;51.212;6.788;2023-05-23T05:18:54;101250.78;;;19.95;100.00
46955;BME280;32708;51.212;6.788;2023-05-23T05:21:21;101244.44;;;19.71;100.00
46955;BME280;32708;51.212;6.788;2023-05-23T05:23:47;101260.53;;;19.23;100.00
46955;BME280;32708;51.212;6.788;2023-05-23T05:26:15;101253.13;;;19.70;100.00
46955;BME280;32708;51.212;6.788;2023-05-23T05:28:41;101256.88;;;19.19;100.00
46955;BME280;32708;51.212;6.788;2023-05-23T05:31:08;101259.38;;;19.86;100.00
46955;BME280;32708;51.212;6.788;2023-05-23T05:33:35;101267.06;;;19.54;100.00
46955;BME280;32708;51.212;6.788;2023-05-23T05:36:07;101274.44;;;19.66;100.00
46955;BME280;32708;51.212;6.788;2023-05-23T05:38:33;101274.19;;;19.55;100.00
46955;BME280;32708;51.212;6.788;2023-05-23T05:41:00;101284.47;;;19.55;100.00
46955;BME280;32708;51.212;6.788;2023-05-23T05:43:31;101271.72;;;19.50;100.00
46955;BME280;32708;51.212;6.788;2023-05-23T05:45:57;101281.41;;;19.79;100.00
46955;BME280;32708;51.212;6.788;2023-05-23T05:48:23;101277.75;;;20.21;100.00
46955;BME280;32708;51.212;6.788;2023-05-23T05:50:51;101275.19;;;20.09;100.00
46955;BME280;32708;51.212;6.788;2023-05-23T05:53:17;101275.41;;;20.00;100.00
46955;BME280;32708;51.212;6.788;2023-05-23T05:55:43;101291.28;;;19.38;100.00
46955;BME280;32708;51.212;6.788;2023-05-23T05:58:09;101282.00;;;19.69;100.00
46955;BME280;32708;51.212;6.788;2023-05-23T06:00:47;101295.06;;;19.30;100.00
46955;BME280;32708;51.212;6.788;2023-05-23T06:03:14;101296.38;;;19.16;100.00
46955;BME280;32708;51.212;6.788;2023-05-23T06:05:50;101298.41;;;18.65;100.00
46955;BME280;32708;51.212;6.788;2023-05-23T06:08:16;101300.66;;;18.94;100.00
46955;BME280;32708;51.212;6.788;2023-05-23T06:10:43;101295.84;;;19.69;100.00
46955;BME280;32708;51.212;6.788;2023-05-23T06:13:09;101288.59;;;20.06;100.00
46955;BME280;32708;51.212;6.788;2023-05-23T06:15:37;101298.03;;;19.79;100.00
46955;BME280;32708;51.212;6.788;2023-05-23T06:18:04;101303.00;;;19.31;100.00
46955;BME280;32708;51.212;6.788;2023-05-23T06:20:31;101298.13;;;19.63;100.00
46955;BME280;32708;51.212;6.788;2023-05-23T06:23:01;101292.72;;;19.70;100.00
46955;BME280;32708;51.212;6.788;2023-05-23T06:25:31;101297.78;;;19.88;100.00
46955;BME280;32708;51.212;6.788;2023-05-23T06:27:57;101298.28;;;19.32;100.00
46955;BME280;32708;51.212;6.788;2023-05-23T06:30:24;101298.31;;;19.35;100.00
46955;BME280;32708;51.212;6.788;2023-05-23T06:32:51;101294.28;;;19.29;100.00
46955;BME280;32708;51.212;6.788;2023-05-23T06:35:18;101304.66;;;18.97;100.00
46955;BME280;32708;51.212;6.788;2023-05-23T06:37:45;101296.78;;;19.76;100.00
46955;BME280;32708;51.212;6.788;2023-05-23T06:40:12;101298.91;;;19.64;100.00
46955;BME280;32708;51.212;6.788;2023-05-23T06:42:41;101303.84;;;19.55;100.00
46955;BME280;32708;51.212;6.788;2023-05-23T06:45:17;101292.66;;;19.67;100.00
46955;BME280;32708;51.212;6.788;2023-05-23T06:47:43;101302.22;;;19.31;100.00
46955;BME280;32708;51.212;6.788;2023-05-23T06:50:11;101305.41;;;19.33;100.00
46955;BME280;32708;51.212;6.788;2023-05-23T06:52:37;101300.75;;;19.17;100.00
46955;BME280;32708;51.212;6.788;2023-05-23T06:55:04;101312.41;;;19.27;100.00
46955;BME280;32708;51.212;6.788;2023-05-23T06:57:31;101315.53;;;19.44;100.00
46955;BME280;32708;51.212;6.788;2023-05-23T06:59:57;101322.31;;;19.08;100.00
46955;BME280;32708;51.212;6.788;2023-05-23T07:02:23;101322.50;;;19.00;100.00
46955;BME280;32708;51.212;6.788;2023-05-23T07:04:49;101324.03;;;19.94;100.00
46955;BME280;32708;51.212;6.788;2023-05-23T07:07:23;101334.53;;;19.07;100.00
46955;BME280;32708;51.212;6.788;2023-05-23T07:09:49;101328.13;;;19.03;100.00
46955;BME280;32708;51.212;6.788;2023-05-23T07:12:18;101322.75;;;19.10;100.00
46955;BME280;32708;51.212;6.788;2023-05-23T07:14:46;101334.63;;;19.11;100.00
46955;BME280;32708;51.212;6.788;2023-05-23T07:17:13;101336.31;;;19.73;100.00
46955;BME280;32708;51.212;6.788;2023-05-23T07:19:40;101324.88;;;20.21;100.00
46955;BME280;32708;51.212;6.788;2023-05-23T07:22:06;101329.50;;;20.36;100.00
46955;BME280;32708;51.212;6.788;2023-05-23T07:24:35;101332.34;;;19.94;100.00
46955;BME280;32708;51.212;6.788;2023-05-23T07:27:02;101341.06;;;19.73;100.00
46955;BME280;32708;51.212;6.788;2023-05-23T07:29:29;101342.63;;;19.55;100.00
46955;BME280;32708;51.212;6.788;2023-05-23T07:31:55;101356.34;;;19.86;100.00
46955;BME280;32708;51.212;6.788;2023-05-23T07:34:22;101341.88;;;19.96;100.00
46955;BME280;32708;51.212;6.788;2023-05-23T07:36:58;101350.16;;;20.39;99.72
46955;BME280;32708;51.212;6.788;2023-05-23T07:39:27;101357.34;;;19.97;100.00
46955;BME280;32708;51.212;6.788;2023-05-23T07:41:55;101339.91;;;20.20;100.00
46955;BME280;32708;51.212;6.788;2023-05-23T07:44:21;101352.16;;;20.42;100.00
46955;BME280;32708;51.212;6.788;2023-05-23T07:46:48;101342.25;;;20.64;98.37
46955;BME280;32708;51.212;6.788;2023-05-23T07:49:14;101360.75;;;19.68;100.00
46955;BME280;32708;51.212;6.788;2023-05-23T07:51:41;101359.31;;;19.97;100.00
46955;BME280;32708;51.212;6.788;2023-05-23T07:54:10;101359.53;;;20.08;100.00
46955;BME280;32708;51.212;6.788;2023-05-23T07:56:41;101360.28;;;19.85;100.00
46955;BME280;32708;51.212;6.788;2023-05-23T07:59:08;101364.44;;;20.41;100.00
46955;BME280;32708;51.212;6.788;2023-05-23T08:01:35;101370.69;;;19.92;100.00
46955;BME280;32708;51.212;6.788;2023-05-23T08:04:04;101369.34;;;19.63;100.00
46955;BME280;32708;51.212;6.788;2023-05-23T08:06:37;101372.56;;;19.65;100.00
46955;BME280;32708;51.212;6.788;2023-05-23T08:09:08;101369.47;;;19.50;100.00
46955;BME280;32708;51.212;6.788;2023-05-23T08:11:41;101380.13;;;19.87;100.00
46955;BME280;32708;51.212;6.788;2023-05-23T08:14:07;101386.94;;;19.16;100.00
46955;BME280;32708;51.212;6.788;2023-05-23T08:16:36;101394.06;;;18.66;100.00
46955;BME280;32708;51.212;6.788;2023-05-23T08:19:05;101392.63;;;18.72;100.00
46955;BME280;32708;51.212;6.788;2023-05-23T08:21:35;101404.13;;;18.74;100.00
46955;BME280;32708;51.212;6.788;2023-05-23T08:24:01;101386.78;;;18.93;100.00
46955;BME280;32708;51.212;6.788;2023-05-23T08:26:27;101401.00;;;19.27;100.00
46955;BME280;32708;51.212;6.788;2023-05-23T08:29:03;101398.97;;;19.23;100.00
46955;BME280;32708;51.212;6.788;2023-05-23T08:31:31;101401.81;;;20.04;100.00
46955;BME280;32708;51.212;6.788;2023-05-23T08:33:59;101402.41;;;19.36;100.00
46955;BME280;32708;51.212;6.788;2023-05-23T08:36:25;101406.97;;;19.29;100.00
46955;BME280;32708;51.212;6.788;2023-05-23T08:38:52;101425.78;;;18.56;100.00
46955;BME280;32708;51.212;6.788;2023-05-23T08:41:25;101423.69;;;18.81;100.00
46955;BME280;32708;51.212;6.788;2023-05-23T08:44:00;101424.25;;;18.43;100.00
46955;BME280;32708;51.212;6.788;2023-05-23T08:46:33;101440.66;;;18.36;100.00
46955;BME280;32708;51.212;6.788;2023-05-23T08:49:05;101430.97;;;18.58;100.00
46955;BME280;32708;51.212;6.788;2023-05-23T08:51:36;101443.59;;;18.27;100.00
46955;BME280;32708;51.212;6.788;2023-05-23T08:54:09;101430.44;;;19.35;100.00
46955;BME280;32708;51.212;6.788;2023-05-23T08:56:43;101441.50;;;19.00;100.00
46955;BME280;32708;51.212;6.788;2023-05-23T08:59:11;101450.97;;;18.98;100.00
46955;BME280;32708;51.212;6.788;2023-05-23T09:01:42;101454.78;;;18.47;100.00
46955;BME280;32708;51.212;6.788;2023-05-23T09:04:11;101457.25;;;18.36;100.00
46955;BME280;32708;51.212;6.788;2023-05-23T09:07:01;101457.22;;;17.92;100.00
46955;BME280;32708;51.212;6.788;2023-05-23T09:09:28;101462.81;;;17.80;100.00
46955;BME280;32708;51.212;6.788;2023-05-23T09:11:57;101459.34;;;17.83;100.00
46955;BME280;32708;51.212;6.788;2023-05-23T09:14:27;101469.06;;;17.52;100.00
46955;BME280;32708;51.212;6.788;2023-05-23T09:17:01;101467.53;;;17.67;100.00
46955;BME280;32708;51.212;6.788;2023-05-23T09:19:28;101474.47;;;17.73;100.00
46955;BME280;32708;51.212;6.788;2023-05-23T09:22:02;101488.53;;;17.44;100.00
46955;BME280;32708;51.212;6.788;2023-05-23T09:24:36;101477.50;;;17.07;100.00
46955;BME280;32708;51.212;6.788;2023-05-23T09:27:06;101482.66;;;17.33;100.00
46955;BME280;32708;51.212;6.788;2023-05-23T09:29:37;101470.44;;;17.99;100.00
46955;BME280;32708;51.212;6.788;2023-05-23T09:32:17;101474.31;;;17.70;100.00
46955;BME280;32708;51.212;6.788;2023-05-23T09:35:07;101475.75;;;18.48;100.00
46955;BME280;32708;51.212;6.788;2023-05-23T09:37:41;101487.94;;;18.03;100.00
46955;BME280;32708;51.212;6.788;2023-05-23T09:40:13;101473.00;;;17.92;100.00
46955;BME280;32708;51.212;6.788;2023-05-23T09:42:44;101479.06;;;18.09;100.00
46955;BME280;32708;51.212;6.788;2023-05-23T09:45:12;101478.09;;;17.90;100.00
46955;BME280;32708;51.212;6.788;2023-05-23T09:47:51;101486.75;;;18.16;100.00
46955;BME280;32708;51.212;6.788;2023-05-23T09:50:19;101476.69;;;18.24;100.00
46955;BME280;32708;51.212;6.788;2023-05-23T09:52:45;101480.00;;;18.01;100.00
46955;BME280;32708;51.212;6.788;2023-05-23T09:55:13;101482.66;;;17.98;100.00
46955;BME280;32708;51.212;6.788;2023-05-23T09:57:42;101493.16;;;18.20;100.00
46955;BME280;32708;51.212;6.788;2023-05-23T10:00:10;101500.59;;;17.39;100.00
46955;BME280;32708;51.212;6.788;2023-05-23T10:03:09;101499.91;;;17.42;100.00
46955;BME280;32708;51.212;6.788;2023-05-23T10:05:44;101498.47;;;17.85;100.00
46955;BME280;32708;51.212;6.788;2023-05-23T10:08:20;101495.66;;;18.53;100.00
46955;BME280;32708;51.212;6.788;2023-05-23T10:14:06;101490.47;;;18.08;100.00
46955;BME280;32708;51.212;6.788;2023-05-23T10:16:52;101490.50;;;17.96;100.00
46955;BME280;32708;51.212;6.788;2023-05-23T10:19:26;101495.91;;;18.20;100.00
46955;BME280;32708;51.212;6.788;2023-05-23T10:22:03;101496.16;;;18.43;98.99
46955;BME280;32708;51.212;6.788;2023-05-23T10:24:33;101487.13;;;18.74;98.10
46955;BME280;32708;51.212;6.788;2023-05-23T10:27:02;101497.03;;;18.03;99.35
46955;BME280;32708;51.212;6.788;2023-05-23T10:29:30;101494.78;;;18.65;97.19
46955;BME280;32708;51.212;6.788;2023-05-23T10:31:59;101512.44;;;17.52;100.00
46955;BME280;32708;51.212;6.788;2023-05-23T10:38:40;101491.78;;;19.52;91.42
46955;BME280;32708;51.212;6.788;2023-05-23T10:41:19;101486.31;;;19.56;88.30
46955;BME280;32708;51.212;6.788;2023-05-23T10:44:11;101478.34;;;19.90;85.07
46955;BME280;32708;51.212;6.788;2023-05-23T10:46:55;101478.53;;;20.58;82.00
46955;BME280;32708;51.212;6.788;2023-05-23T10:49:51;101479.25;;;21.01;79.89
46955;BME280;32708;51.212;6.788;2023-05-23T10:52:17;101481.34;;;20.85;81.38
46955;BME280;32708;51.212;6.788;2023-05-23T10:54:51;101480.63;;;20.03;79.60
46955;BME280;32708;51.212;6.788;2023-05-23T10:57:21;101481.22;;;19.93;78.23
46955;BME280;32708;51.212;6.788;2023-05-23T10:59:51;101475.66;;;19.93;77.54
46955;BME280;32708;51.212;6.788;2023-05-23T11:02:24;101479.53;;;20.08;76.43
46955;BME280;32708;51.212;6.788;2023-05-23T11:05:21;101470.25;;;20.43;76.61
46955;BME280;32708;51.212;6.788;2023-05-23T11:08:11;101466.22;;;20.37;77.24
46955;BME280;32708;51.212;6.788;2023-05-23T11:11:00;101479.81;;;19.84;77.94
46955;BME280;32708;51.212;6.788;2023-05-23T11:18:50;101470.69;;;20.87;73.67
46955;BME280;32708;51.212;6.788;2023-05-23T11:21:18;101462.94;;;21.00;72.87
46955;BME280;32708;51.212;6.788;2023-05-23T11:23:54;101466.88;;;20.30;75.13
46955;BME280;32708;51.212;6.788;2023-05-23T11:26:32;101472.53;;;20.56;73.47
46955;BME280;32708;51.212;6.788;2023-05-23T11:28:59;101468.38;;;21.15;72.29
46955;BME280;32708;51.212;6.788;2023-05-23T11:31:25;101484.25;;;20.46;74.96
46955;BME280;32708;51.212;6.788;2023-05-23T11:33:52;101489.50;;;19.39;79.26
46955;BME280;32708;51.212;6.788;2023-05-23T11:36:23;101492.78;;;19.44;80.50
46955;BME280;32708;51.212;6.788;2023-05-23T11:38:51;101499.28;;;20.06;77.92
46955;BME280;32708;51.212;6.788;2023-05-23T11:41:18;101506.81;;;19.36;79.42
46955;BME280;32708;51.212;6.788;2023-05-23T11:43:51;101501.94;;;19.13;78.92
46955;BME280;32708;51.212;6.788;2023-05-23T11:46:18;101489.59;;;19.97;74.97
46955;BME280;32708;51.212;6.788;2023-05-23T11:48:48;101493.44;;;19.73;75.36
46955;BME280;32708;51.212;6.788;2023-05-23T11:51:16;101488.13;;;19.84;74.32
46955;BME280;32708;51.212;6.788;2023-05-23T11:53:42;101482.53;;;20.42;72.44
46955;BME280;32708;51.212;6.788;2023-05-23T11:56:08;101488.81;;;20.81;70.42
46955;BME280;32708;51.212;6.788;2023-05-23T11:58:37;101479.78;;;21.10;70.08
46955;BME280;32708;51.212;6.788;2023-05-23T12:01:10;101492.69;;;20.53;71.78
46955;BME280;32708;51.212;6.788;2023-05-23T12:03:49;101496.94;;;19.89;72.83
46955;BME280;32708;51.212;6.788;2023-05-23T12:06:23;101496.59;;;19.91;73.49
46955;BME280;32708;51.212;6.788;2023-05-23T12:08:53;101505.47;;;19.45;75.10
46955;BME280;32708;51.212;6.788;2023-05-23T12:11:19;101505.03;;;19.78;74.43
46955;BME280;32708;51.212;6.788;2023-05-23T12:13:45;101504.34;;;21.08;72.42
46955;BME280;32708;51.212;6.788;2023-05-23T12:16:13;101505.59;;;20.88;69.56
46955;BME280;32708;51.212;6.788;2023-05-23T12:18:42;101501.81;;;21.49;68.59
46955;BME280;32708;51.212;6.788;2023-05-23T12:21:09;101488.81;;;20.81;67.49
46955;BME280;32708;51.212;6.788;2023-05-23T12:23:35;101499.16;;;20.42;68.66
46955;BME280;32708;51.212;6.788;2023-05-23T12:26:05;101480.53;;;21.30;65.36
46955;BME280;32708;51.212;6.788;2023-05-23T12:28:36;101485.69;;;21.58;63.44
46955;BME280;32708;51.212;6.788;2023-05-23T12:31:19;101480.97;;;22.26;61.57
46955;BME280;32708;51.212;6.788;2023-05-23T12:33:47;101477.69;;;22.17;58.67
46955;BME280;32708;51.212;6.788;2023-05-23T12:36:20;101490.03;;;22.19;60.29
46955;BME280;32708;51.212;6.788;2023-05-23T12:38:47;101491.94;;;21.82;59.91
46955;BME280;32708;51.212;6.788;2023-05-23T12:41:19;101485.47;;;21.44;60.78
46955;BME280;32708;51.212;6.788;2023-05-23T12:43:54;101493.50;;;20.54;63.23
46955;BME280;32708;51.212;6.788;2023-05-23T12:46:23;101494.03;;;20.63;63.76
46955;BME280;32708;51.212;6.788;2023-05-23T12:48:51;101485.50;;;21.74;60.62
46955;BME280;32708;51.212;6.788;2023-05-23T12:51:18;101477.38;;;22.22;58.37
46955;BME280;32708;51.212;6.788;2023-05-23T12:53:45;101481.72;;;21.33;58.74
46955;BME280;32708;51.212;6.788;2023-05-23T12:56:11;101484.78;;;21.81;58.89
46955;BME280;32708;51.212;6.788;2023-05-23T12:58:37;101470.59;;;23.04;53.50
46955;BME280;32708;51.212;6.788;2023-05-23T13:01:04;101467.88;;;23.84;51.94
46955;BME280;32708;51.212;6.788;2023-05-23T13:03:30;101467.31;;;22.92;51.08
46955;BME280;32708;51.212;6.788;2023-05-23T13:05:57;101447.59;;;23.18;49.08
46955;BME280;32708;51.212;6.788;2023-05-23T13:08:25;101459.03;;;23.02;48.66
46955;BME280;32708;51.212;6.788;2023-05-23T13:10:56;101466.28;;;22.66;49.81
46955;BME280;32708;51.212;6.788;2023-05-23T13:13:22;101468.22;;;22.62;50.16
46955;BME280;32708;51.212;6.788;2023-05-23T13:15:48;101458.28;;;23.09;48.90
46955;BME280;32708;51.212;6.788;2023-05-23T13:18:15;101478.47;;;21.84;51.94